createdAt,value
2022-09-12T00:01:12.291Z,89.31
2022-09-12T00:02:45.248Z,89.76
2022-09-12T00:04:18.000Z,89.41
2022-09-12T00:05:50.839Z,89.24
2022-09-12T00:07:23.939Z,89.49
2022-09-12T00:08:58.608Z,89.36
2022-09-12T00:10:31.468Z,89.27
2022-09-12T00:12:04.594Z,89.80
2022-09-12T00:13:41.677Z,89.70
2022-09-12T00:15:14.920Z,89.74
2022-09-12T00:16:47.956Z,89.92
2022-09-12T00:18:20.797Z,90.07
2022-09-12T00:19:53.878Z,89.69
2022-09-12T00:21:26.958Z,89.93
2022-09-12T00:22:59.657Z,89.63
2022-09-12T00:24:33.794Z,89.69
2022-09-12T00:26:07.314Z,90.03
2022-09-12T00:27:40.506Z,90.05
2022-09-12T00:29:17.894Z,90.28
2022-09-12T00:30:51.130Z,90.43
2022-09-12T00:32:23.972Z,90.33
2022-09-12T00:33:58.250Z,90.73
2022-09-12T00:35:31.048Z,90.61
2022-09-12T00:37:04.341Z,90.31
2022-09-12T00:38:39.150Z,90.67
2022-09-12T00:40:12.056Z,90.67
2022-09-12T00:41:45.029Z,90.70
2022-09-12T00:43:37.657Z,91.05
2022-09-12T00:45:20.608Z,91.03
2022-09-12T00:46:57.070Z,90.75
2022-09-12T00:48:35.691Z,90.63
2022-09-12T00:50:10.958Z,91.03
2022-09-12T00:51:46.789Z,90.82
2022-09-12T00:53:19.820Z,91.35
2022-09-12T00:54:55.553Z,91.56
2022-09-12T00:56:28.652Z,91.36
2022-09-12T00:58:04.536Z,91.63
2022-09-12T00:59:44.211Z,92.12
2022-09-12T01:01:17.219Z,91.73
2022-09-12T01:02:52.323Z,91.75
2022-09-12T01:04:26.549Z,91.58
2022-09-12T01:05:59.612Z,91.91
2022-09-12T01:07:35.782Z,91.64
2022-09-12T01:09:14.921Z,91.95
2022-09-12T01:10:49.286Z,92.29
2022-09-12T01:12:22.522Z,92.00
2022-09-12T01:13:55.777Z,91.92
2022-09-12T01:15:29.303Z,92.30
2022-09-12T01:17:20.938Z,92.34
2022-09-12T01:18:57.321Z,91.79
2022-09-12T01:20:46.573Z,91.88
2022-09-12T01:22:22.324Z,92.06
2022-09-12T01:24:13.024Z,92.12
2022-09-12T01:25:45.818Z,91.92
2022-09-12T01:27:18.615Z,91.93
2022-09-12T01:28:58.620Z,91.69
2022-09-12T01:30:44.098Z,92.17
2022-09-12T01:32:53.121Z,91.81
2022-09-12T01:34:31.210Z,91.65
2022-09-12T01:36:10.578Z,91.64
2022-09-12T01:37:47.635Z,91.75
2022-09-12T01:39:43.108Z,91.80
2022-09-12T01:41:27.993Z,91.92
2022-09-12T01:43:13.283Z,92.36
2022-09-12T01:44:48.797Z,91.94
2022-09-12T01:46:24.862Z,92.01
2022-09-12T01:48:03.603Z,92.16
2022-09-12T01:49:46.597Z,92.12
2022-09-12T01:51:23.888Z,91.73
2022-09-12T01:53:00.271Z,91.62
2022-09-12T01:54:37.760Z,91.76
2022-09-12T01:56:15.989Z,92.04
2022-09-12T01:57:56.971Z,91.75
2022-09-12T01:59:45.929Z,91.79
2022-09-12T02:01:28.450Z,91.85
2022-09-12T02:03:05.013Z,91.41
2022-09-12T02:04:49.261Z,91.66
2022-09-12T02:06:29.943Z,91.46
2022-09-12T02:08:06.962Z,91.33
2022-09-12T02:09:46.805Z,91.48
2022-09-12T02:11:21.026Z,91.23
2022-09-12T02:12:58.119Z,90.88
2022-09-12T02:14:32.829Z,90.94
2022-09-12T02:16:11.012Z,90.94
2022-09-12T02:17:48.503Z,90.92
2022-09-12T02:19:23.978Z,90.52
2022-09-12T02:20:57.380Z,90.92
2022-09-12T02:22:30.837Z,90.46
2022-09-12T02:24:06.327Z,90.83
2022-09-12T02:25:43.542Z,90.81
2022-09-12T02:27:29.120Z,90.64
2022-09-12T02:29:08.214Z,90.54
2022-09-12T02:30:45.007Z,90.35
2022-09-12T02:32:37.936Z,90.36
2022-09-12T02:34:11.269Z,90.25
2022-09-12T02:35:44.349Z,90.15
2022-09-12T02:37:40.339Z,90.45
2022-09-12T02:39:13.503Z,90.33
2022-09-12T02:40:46.543Z,90.37
2022-09-12T02:42:19.564Z,89.85
2022-09-12T02:43:53.550Z,90.37
2022-09-12T02:45:26.812Z,89.97
2022-09-12T02:47:04.222Z,89.83
2022-09-12T02:48:41.445Z,89.87
2022-09-12T02:50:14.893Z,89.84
2022-09-12T02:51:48.679Z,90.28
2022-09-12T02:53:21.561Z,90.00
2022-09-12T02:54:55.529Z,89.88
2022-09-12T02:56:29.951Z,90.42
2022-09-12T02:58:04.442Z,90.25
2022-09-12T02:59:37.488Z,90.06
2022-09-12T03:01:33.696Z,90.26
2022-09-12T03:03:28.632Z,90.36
2022-09-12T03:05:01.573Z,90.32
2022-09-12T03:06:44.420Z,90.20
2022-09-12T03:08:17.248Z,90.08
2022-09-12T03:10:02.140Z,90.21
2022-09-12T03:11:47.450Z,90.18
2022-09-12T03:13:24.905Z,90.14
2022-09-12T03:15:13.181Z,90.03
2022-09-12T03:17:18.306Z,90.39
2022-09-12T03:18:51.224Z,90.15
2022-09-12T03:20:44.885Z,90.11
2022-09-12T03:22:27.325Z,90.17
2022-09-12T03:24:18.747Z,90.07
2022-09-12T03:25:57.921Z,90.25
2022-09-12T03:27:34.050Z,89.77
2022-09-12T03:29:07.715Z,90.28
2022-09-12T03:30:42.048Z,89.81
2022-09-12T03:32:15.730Z,90.38
2022-09-12T03:33:48.582Z,90.29
2022-09-12T03:35:23.950Z,90.59
2022-09-12T03:36:57.386Z,90.70
2022-09-12T03:38:30.359Z,90.43
2022-09-12T03:40:04.621Z,90.98
2022-09-12T03:41:37.501Z,91.12
2022-09-12T03:43:10.741Z,90.97
2022-09-12T03:44:43.756Z,91.23
2022-09-12T03:46:17.654Z,91.28
2022-09-12T03:47:50.692Z,91.57
2022-09-12T03:49:23.567Z,91.41
2022-09-12T03:50:56.455Z,91.96
2022-09-12T03:52:29.351Z,91.90
2022-09-12T03:54:02.212Z,91.98
2022-09-12T03:55:35.250Z,91.60
2022-09-12T03:57:08.211Z,91.53
2022-09-12T03:58:41.336Z,91.36
2022-09-12T04:00:19.100Z,91.09
2022-09-12T04:01:53.149Z,91.41
2022-09-12T04:03:30.606Z,91.34
2022-09-12T04:05:06.479Z,91.39
2022-09-12T04:06:39.474Z,91.18
2022-09-12T04:08:12.426Z,91.12
2022-09-12T04:09:45.878Z,91.17
2022-09-12T04:11:20.110Z,90.86
2022-09-12T04:12:53.568Z,90.47
2022-09-12T04:14:26.454Z,90.49
2022-09-12T04:16:00.296Z,89.65
2022-09-12T04:17:34.035Z,89.15
2022-09-12T04:19:06.811Z,88.71
2022-09-12T04:20:39.574Z,87.68
2022-09-12T04:22:12.531Z,86.75
2022-09-12T04:23:45.837Z,86.36
2022-09-12T04:25:18.823Z,85.41
2022-09-12T04:26:51.912Z,83.95
2022-09-12T04:28:25.536Z,83.16
2022-09-12T04:29:58.650Z,80.06
2022-09-12T04:31:31.561Z,72.63
2022-09-12T04:33:07.974Z,69.64
2022-09-12T04:34:41.257Z,67.32
2022-09-12T04:36:16.908Z,65.13
2022-09-12T04:37:49.709Z,65.63
2022-09-12T04:39:22.533Z,65.77
2022-09-12T04:40:56.279Z,66.70
2022-09-12T04:42:30.120Z,67.54
2022-09-12T04:44:07.675Z,68.83
2022-09-12T04:45:40.607Z,69.92
2022-09-12T04:47:13.907Z,69.90
2022-09-12T04:48:47.723Z,69.98
2022-09-12T04:50:20.742Z,69.33
2022-09-12T04:51:55.602Z,69.15
2022-09-12T04:53:28.855Z,68.83
2022-09-12T04:55:02.012Z,69.26
2022-09-12T04:56:40.589Z,69.85
2022-09-12T04:58:14.438Z,71.30
2022-09-12T04:59:47.546Z,71.72
2022-09-12T05:01:21.742Z,72.09
2022-09-12T05:02:55.310Z,73.49
2022-09-12T05:04:28.514Z,73.51
2022-09-12T05:06:05.731Z,73.24
2022-09-12T05:07:39.060Z,73.31
2022-09-12T05:09:13.192Z,72.75
2022-09-12T05:10:49.272Z,72.42
2022-09-12T05:12:25.090Z,72.63
2022-09-12T05:13:58.892Z,73.10
2022-09-12T05:15:31.785Z,72.50
2022-09-12T05:17:06.374Z,71.56
2022-09-12T05:18:39.608Z,70.46
2022-09-12T05:20:13.215Z,70.06
2022-09-12T05:21:46.299Z,69.36
2022-09-12T05:23:19.770Z,68.30
2022-09-12T05:24:55.587Z,67.14
2022-09-12T05:26:28.889Z,68.25
2022-09-12T05:28:01.962Z,68.23
2022-09-12T05:29:35.060Z,68.74
2022-09-12T05:31:28.038Z,68.57
2022-09-12T05:33:01.786Z,68.76
2022-09-12T05:34:34.616Z,68.81
2022-09-12T05:36:10.379Z,67.60
2022-09-12T05:37:43.801Z,67.15
2022-09-12T05:39:16.645Z,66.86
2022-09-12T05:40:49.366Z,67.09
2022-09-12T05:42:22.416Z,68.04
2022-09-12T05:43:56.747Z,67.63
2022-09-12T05:45:30.434Z,67.84
2022-09-12T05:47:03.413Z,67.72
2022-09-12T05:48:37.445Z,68.94
2022-09-12T05:50:11.699Z,69.33
2022-09-12T05:51:45.581Z,69.16
2022-09-12T05:53:20.302Z,68.64
2022-09-12T05:54:53.095Z,69.85
2022-09-12T05:56:27.089Z,70.15
2022-09-12T05:58:00.861Z,69.99
2022-09-12T05:59:33.935Z,69.95
2022-09-12T06:01:08.371Z,69.64
2022-09-12T06:02:41.561Z,69.32
2022-09-12T06:04:14.646Z,69.58
2022-09-12T06:05:50.580Z,69.36
2022-09-12T06:07:23.670Z,69.18
2022-09-12T06:08:57.930Z,69.26
2022-09-12T06:10:31.334Z,69.21
2022-09-12T06:12:04.722Z,69.23
2022-09-12T06:13:39.081Z,69.65
2022-09-12T06:15:12.129Z,69.93
2022-09-12T06:16:45.517Z,70.04
2022-09-12T06:18:18.436Z,70.29
2022-09-12T06:19:51.505Z,70.21
2022-09-12T06:21:25.318Z,70.26
2022-09-12T06:22:58.322Z,69.58
2022-09-12T06:24:31.438Z,69.87
2022-09-12T06:26:05.282Z,70.35
2022-09-12T06:27:38.179Z,70.32
2022-09-12T06:29:11.995Z,70.55
2022-09-12T06:30:44.761Z,70.85
2022-09-12T06:32:17.508Z,70.86
2022-09-12T06:33:51.598Z,71.40
2022-09-12T06:35:24.648Z,70.95
2022-09-12T06:36:58.346Z,70.42
2022-09-12T06:38:32.006Z,70.12
2022-09-12T06:40:05.298Z,69.81
2022-09-12T06:41:43.000Z,70.34
2022-09-12T06:43:20.296Z,70.69
2022-09-12T06:44:54.564Z,71.60
2022-09-12T06:46:28.084Z,72.56
2022-09-12T06:48:01.312Z,73.63
2022-09-12T06:49:34.307Z,74.42
2022-09-12T06:51:08.281Z,75.19
2022-09-12T06:52:41.171Z,75.61
2022-09-12T06:54:14.945Z,76.02
2022-09-12T06:55:48.499Z,76.08
2022-09-12T06:57:21.440Z,75.42
2022-09-12T06:58:56.113Z,75.45
2022-09-12T07:00:29.489Z,75.49
2022-09-12T07:02:02.363Z,75.11
2022-09-12T07:03:36.072Z,75.32
2022-09-12T07:05:09.670Z,75.19
2022-09-12T07:06:44.409Z,75.05
2022-09-12T07:08:17.187Z,74.81
2022-09-12T07:09:50.668Z,74.66
2022-09-12T07:11:25.537Z,75.01
2022-09-12T07:12:59.383Z,75.49
2022-09-12T07:14:33.776Z,75.23
2022-09-12T07:16:07.007Z,75.36
2022-09-12T07:17:40.003Z,75.72
2022-09-12T07:19:12.928Z,75.51
2022-09-12T07:20:45.806Z,75.34
2022-09-12T07:22:18.782Z,75.53
2022-09-12T07:24:13.426Z,75.69
2022-09-12T07:25:52.941Z,75.82
2022-09-12T07:27:26.171Z,75.22
2022-09-12T07:30:54.883Z,74.48
2022-09-12T07:32:31.054Z,74.77
2022-09-12T07:34:07.441Z,74.71
2022-09-12T07:35:40.377Z,74.39
2022-09-12T07:37:13.705Z,73.90
2022-09-12T07:38:47.359Z,73.58
2022-09-12T07:40:20.330Z,73.70
2022-09-12T07:41:53.292Z,73.44
2022-09-12T07:43:26.558Z,72.95
2022-09-12T07:44:59.605Z,73.08
2022-09-12T07:46:32.771Z,72.96
2022-09-12T07:48:05.697Z,71.84
2022-09-12T07:49:38.769Z,72.11
2022-09-12T07:51:12.451Z,71.65
2022-09-12T07:52:45.431Z,71.79
2022-09-12T07:54:18.707Z,71.28
2022-09-12T07:55:55.669Z,71.31
2022-09-12T07:57:28.550Z,71.64
2022-09-12T07:59:01.409Z,71.81
2022-09-12T08:00:36.251Z,72.13
2022-09-12T08:02:17.099Z,71.37
2022-09-12T08:03:53.841Z,71.18
2022-09-12T08:05:26.738Z,71.27
2022-09-12T08:06:59.971Z,70.88
2022-09-12T08:08:33.367Z,71.09
2022-09-12T08:10:06.408Z,70.86
2022-09-12T08:11:39.274Z,70.68
2022-09-12T08:13:12.178Z,70.15
2022-09-12T08:14:45.630Z,69.72
2022-09-12T08:16:20.560Z,69.36
2022-09-12T08:17:53.364Z,70.02
2022-09-12T08:19:26.183Z,70.33
2022-09-12T08:21:07.060Z,70.37
2022-09-12T08:22:40.230Z,70.00
2022-09-12T08:24:13.119Z,68.02
2022-09-12T08:25:46.305Z,66.92
2022-09-12T08:27:27.094Z,65.80
2022-09-12T08:29:06.106Z,64.59
2022-09-12T08:30:39.092Z,63.19
2022-09-12T08:32:12.027Z,62.34
2022-09-12T08:33:45.362Z,62.06
2022-09-12T08:35:18.249Z,61.27
2022-09-12T08:36:51.429Z,60.82
2022-09-12T08:38:24.406Z,60.30
2022-09-12T08:39:57.419Z,60.13
2022-09-12T08:41:40.155Z,59.12
2022-09-12T08:43:36.091Z,57.16
2022-09-12T08:45:15.613Z,57.77
2022-09-12T08:46:52.039Z,57.90
2022-09-12T08:48:24.865Z,57.67
2022-09-12T08:49:57.574Z,58.54
2022-09-12T08:51:31.856Z,57.81
2022-09-12T08:53:20.892Z,57.45
2022-09-12T08:54:57.463Z,57.46
2022-09-12T08:56:32.299Z,56.69
2022-09-12T08:58:12.909Z,57.34
2022-09-12T08:59:46.700Z,57.85
2022-09-12T09:01:36.425Z,57.12
2022-09-12T09:03:30.781Z,57.96
2022-09-12T09:05:27.027Z,60.67
2022-09-12T09:07:14.822Z,59.17
2022-09-12T09:09:04.222Z,58.71
2022-09-12T09:10:47.452Z,58.77
2022-09-12T09:12:27.181Z,57.87
2022-09-12T09:14:21.746Z,57.11
2022-09-12T09:16:04.253Z,57.68
2022-09-12T09:17:43.737Z,58.62
2022-09-12T09:19:29.326Z,58.65
2022-09-12T09:21:19.358Z,60.18
2022-09-12T09:23:08.703Z,59.30
2022-09-12T09:24:49.049Z,58.60
2022-09-12T09:26:26.977Z,57.74
2022-09-12T09:28:05.919Z,56.74
2022-09-12T09:29:44.929Z,57.12
2022-09-12T09:31:19.335Z,58.05
2022-09-12T09:32:54.572Z,57.34
2022-09-12T09:34:31.802Z,57.46
2022-09-12T09:36:15.145Z,57.38
2022-09-12T09:38:00.819Z,57.32
2022-09-12T09:39:38.628Z,57.29
2022-09-12T09:41:11.753Z,57.58
2022-09-12T09:43:03.541Z,58.34
2022-09-12T09:44:37.348Z,58.24
2022-09-12T09:46:11.725Z,57.91
2022-09-12T09:47:51.241Z,57.09
2022-09-12T09:49:25.086Z,57.35
2022-09-12T09:51:02.515Z,57.21
2022-09-12T09:52:39.908Z,56.45
2022-09-12T09:54:18.880Z,57.22
2022-09-12T09:55:52.214Z,56.79
2022-09-12T09:57:37.631Z,56.77
2022-09-12T09:59:16.592Z,56.11
2022-09-12T10:00:52.690Z,56.36
2022-09-12T10:02:28.666Z,56.73
2022-09-12T10:04:01.806Z,56.54
2022-09-12T10:05:37.494Z,56.79
2022-09-12T10:07:19.230Z,56.51
2022-09-12T10:08:52.648Z,56.24
2022-09-12T10:10:26.403Z,56.63
2022-09-12T10:12:00.122Z,56.69
2022-09-12T10:13:38.261Z,56.49
2022-09-12T10:15:21.952Z,57.75
2022-09-12T10:16:54.949Z,57.11
2022-09-12T10:18:39.054Z,57.26
2022-09-12T10:20:30.993Z,57.07
2022-09-12T10:22:04.732Z,57.26
2022-09-12T10:23:40.610Z,57.72
2022-09-12T10:25:17.397Z,57.73
2022-09-12T10:26:56.823Z,57.98
2022-09-12T10:28:36.352Z,58.22
2022-09-12T10:30:15.247Z,57.94
2022-09-12T10:32:06.775Z,58.33
2022-09-12T10:33:54.230Z,58.33
2022-09-12T10:35:32.263Z,58.98
2022-09-12T10:37:07.194Z,58.78
2022-09-12T10:38:49.902Z,58.36
2022-09-12T10:40:28.467Z,58.33
2022-09-12T10:42:02.027Z,58.15
2022-09-12T10:43:37.788Z,58.59
2022-09-12T10:45:25.414Z,58.92
2022-09-12T10:46:59.454Z,58.90
2022-09-12T10:48:33.246Z,58.28
2022-09-12T10:50:27.366Z,57.74
2022-09-12T10:52:17.976Z,57.71
2022-09-12T10:54:05.289Z,58.82
2022-09-12T10:55:39.007Z,57.93
2022-09-12T10:57:25.084Z,58.37
2022-09-12T10:59:02.630Z,57.91
2022-09-12T11:00:40.647Z,56.88
2022-09-12T11:02:30.684Z,56.53
2022-09-12T11:04:10.098Z,55.58
2022-09-12T11:05:52.439Z,56.19
2022-09-12T11:07:32.601Z,55.65
2022-09-12T11:09:11.976Z,55.00
2022-09-12T11:11:08.411Z,54.50
2022-09-12T11:12:44.624Z,54.82
2022-09-12T11:14:25.745Z,54.56
2022-09-12T11:16:07.697Z,54.33
2022-09-12T11:17:56.819Z,53.22
2022-09-12T11:19:41.772Z,51.24
2022-09-12T11:21:34.883Z,49.63
2022-09-12T11:23:39.991Z,50.16
2022-09-12T11:25:15.993Z,50.21
2022-09-12T11:26:55.086Z,49.55
2022-09-12T11:28:47.446Z,50.16
2022-09-12T11:30:20.874Z,50.04
2022-09-12T11:32:12.162Z,50.95
2022-09-12T11:33:46.461Z,50.80
2022-09-12T11:35:28.024Z,49.96
2022-09-12T11:37:15.097Z,49.55
2022-09-12T11:39:09.469Z,48.66
2022-09-12T11:40:49.695Z,47.51
2022-09-12T11:42:26.173Z,47.03
2022-09-12T11:43:59.159Z,46.44
2022-09-12T11:45:41.720Z,46.37
2022-09-12T11:47:15.327Z,46.92
2022-09-12T11:49:06.710Z,46.69
2022-09-12T11:50:40.098Z,47.79
2022-09-12T11:52:20.839Z,47.20
2022-09-12T11:54:04.794Z,48.35
2022-09-12T11:55:51.163Z,47.66
2022-09-12T11:57:29.989Z,47.86
2022-09-12T11:59:05.285Z,47.62
2022-09-12T12:00:45.307Z,45.75
2022-09-12T12:02:23.055Z,46.36
2022-09-12T12:03:58.385Z,46.68
2022-09-12T12:05:44.901Z,46.33
2022-09-12T12:07:19.713Z,46.47
2022-09-12T12:08:53.437Z,46.84
2022-09-12T12:12:29.502Z,45.78
2022-09-12T12:14:28.864Z,45.73
2022-09-12T12:16:25.428Z,45.33
2022-09-12T12:18:18.855Z,45.74
2022-09-12T12:20:04.744Z,46.24
2022-09-12T12:21:50.009Z,45.62
2022-09-12T12:23:29.152Z,45.76
2022-09-12T12:25:02.277Z,46.72
2022-09-12T12:26:41.972Z,46.46
2022-09-12T12:28:35.051Z,46.52
2022-09-12T12:30:28.064Z,46.29
2022-09-12T12:32:08.114Z,46.41
2022-09-12T12:33:41.105Z,46.66
2022-09-12T12:35:32.727Z,46.06
2022-09-12T12:37:20.906Z,46.65
2022-09-12T12:38:54.628Z,47.56
2022-09-12T12:40:28.470Z,47.48
2022-09-12T12:42:01.922Z,46.64
2022-09-12T12:43:35.434Z,47.25
2022-09-12T12:45:20.559Z,48.30
2022-09-12T12:47:29.740Z,50.59
2022-09-12T12:49:11.667Z,51.56
2022-09-12T12:50:46.158Z,52.75
2022-09-12T12:52:20.352Z,53.89
2022-09-12T12:53:54.607Z,53.81
2022-09-12T12:55:33.497Z,54.25
2022-09-12T12:57:28.681Z,55.45
2022-09-12T12:59:03.301Z,55.29
2022-09-12T13:00:40.920Z,56.05
2022-09-12T13:02:37.624Z,56.37
2022-09-12T13:04:19.750Z,56.67
2022-09-12T13:05:58.164Z,56.99
2022-09-12T13:07:38.199Z,56.71
2022-09-12T13:09:22.844Z,57.00
2022-09-12T13:11:13.003Z,57.09
2022-09-12T13:12:48.049Z,57.38
2022-09-12T13:14:33.729Z,57.30
2022-09-12T13:16:08.034Z,57.16
2022-09-12T13:17:45.226Z,57.75
2022-09-12T13:19:21.522Z,57.98
2022-09-12T13:21:00.253Z,57.95
2022-09-12T13:22:41.318Z,58.15
2022-09-12T13:24:16.534Z,58.08
2022-09-12T13:25:56.602Z,58.30
2022-09-12T13:27:29.847Z,58.83
2022-09-12T13:29:19.273Z,58.62
2022-09-12T13:31:12.814Z,58.52
2022-09-12T13:32:46.054Z,58.71
2022-09-12T13:34:21.896Z,58.26
2022-09-12T13:36:16.927Z,59.31
2022-09-12T13:38:13.532Z,58.77
2022-09-12T13:39:59.031Z,59.00
2022-09-12T13:41:52.203Z,59.02
2022-09-12T13:43:42.591Z,59.24
2022-09-12T13:45:18.761Z,59.85
2022-09-12T13:46:52.296Z,60.16
2022-09-12T13:48:26.136Z,60.56
2022-09-12T13:49:59.841Z,60.39
2022-09-12T13:51:33.720Z,60.36
2022-09-12T13:53:11.898Z,60.76
2022-09-12T13:54:47.426Z,61.02
2022-09-12T13:56:20.839Z,61.45
2022-09-12T13:57:58.470Z,61.37
2022-09-12T13:59:41.289Z,61.58
2022-09-12T14:01:15.688Z,61.80
2022-09-12T14:02:49.785Z,61.46
2022-09-12T14:04:43.408Z,61.43
2022-09-12T14:06:16.985Z,61.55
2022-09-12T14:07:55.378Z,61.86
2022-09-12T14:09:38.832Z,61.79
2022-09-12T14:11:12.717Z,61.92
2022-09-12T14:12:51.118Z,62.28
2022-09-12T14:14:31.591Z,62.51
2022-09-12T14:16:09.323Z,62.95
2022-09-12T14:17:52.974Z,63.04
2022-09-12T14:19:26.616Z,62.94
2022-09-12T14:21:06.599Z,63.04
2022-09-12T14:22:41.260Z,63.22
2022-09-12T14:24:15.262Z,63.10
2022-09-12T14:25:49.459Z,62.90
2022-09-12T14:27:29.122Z,62.87
2022-09-12T14:29:02.537Z,62.39
2022-09-12T14:30:37.546Z,62.55
2022-09-12T14:32:21.279Z,62.58
2022-09-12T14:33:56.436Z,62.54
2022-09-12T14:35:37.561Z,61.80
2022-09-12T14:37:13.813Z,61.64
2022-09-12T14:38:49.574Z,61.82
2022-09-12T14:40:24.311Z,62.06
2022-09-12T14:42:02.292Z,62.24
2022-09-12T14:43:36.678Z,62.46
2022-09-12T14:45:32.803Z,62.66
2022-09-12T14:47:14.466Z,62.59
2022-09-12T14:48:51.655Z,62.62
2022-09-12T14:50:26.804Z,62.94
2022-09-12T14:52:01.384Z,62.98
2022-09-12T14:53:36.020Z,63.02
2022-09-12T14:55:30.124Z,63.18
2022-09-12T14:57:05.174Z,63.01
2022-09-12T14:58:39.099Z,63.27
2022-09-12T15:00:18.156Z,63.47
2022-09-12T15:01:51.358Z,64.26
2022-09-12T15:03:26.463Z,64.68
2022-09-12T15:05:05.194Z,64.56
2022-09-12T15:06:39.318Z,65.11
2022-09-12T15:08:15.855Z,65.54
2022-09-12T15:09:49.952Z,65.54
2022-09-12T15:11:23.418Z,65.86
2022-09-12T15:13:14.703Z,65.90
2022-09-12T15:14:47.982Z,66.03
2022-09-12T15:16:21.158Z,66.70
2022-09-12T15:17:54.419Z,66.94
2022-09-12T15:19:27.505Z,67.22
2022-09-12T15:21:05.245Z,67.70
2022-09-12T15:22:39.036Z,68.55
2022-09-12T15:24:12.290Z,68.87
2022-09-12T15:25:45.611Z,69.36
2022-09-12T15:27:18.666Z,69.60
2022-09-12T15:28:51.744Z,70.16
2022-09-12T15:30:24.939Z,70.70
2022-09-12T15:31:58.094Z,70.89
2022-09-12T15:33:31.717Z,71.12
2022-09-12T15:35:05.184Z,71.04
2022-09-12T15:36:38.592Z,71.23
2022-09-12T15:38:11.678Z,70.99
2022-09-12T15:39:47.221Z,71.61
2022-09-12T15:41:24.083Z,71.98
2022-09-12T15:42:57.147Z,72.42
2022-09-12T15:44:31.253Z,72.61
2022-09-12T15:46:07.155Z,72.52
2022-09-12T15:47:40.040Z,72.63
2022-09-12T15:49:13.282Z,72.92
2022-09-12T15:50:46.282Z,73.01
2022-09-12T15:52:19.579Z,73.14
2022-09-12T15:53:52.926Z,72.83
2022-09-12T15:55:29.641Z,73.29
2022-09-12T15:57:03.046Z,73.37
2022-09-12T15:58:36.826Z,73.55
2022-09-12T16:00:10.046Z,73.62
2022-09-12T16:01:44.693Z,73.61
2022-09-12T16:03:22.387Z,73.88
2022-09-12T16:04:56.315Z,74.00
2022-09-12T16:06:36.261Z,74.08
2022-09-12T16:08:10.520Z,74.00
2022-09-12T16:09:43.522Z,73.82
2022-09-12T16:11:24.178Z,74.44
2022-09-12T16:12:57.377Z,74.06
2022-09-12T16:14:30.440Z,74.20
2022-09-12T16:16:04.052Z,73.93
2022-09-12T16:17:41.463Z,73.95
2022-09-12T16:19:14.658Z,74.03
2022-09-12T16:20:48.333Z,73.67
2022-09-12T16:22:21.712Z,73.66
2022-09-12T16:23:55.501Z,73.57
2022-09-12T16:25:28.703Z,73.48
2022-09-12T16:27:02.060Z,73.52
2022-09-12T16:28:35.637Z,73.63
2022-09-12T16:30:09.482Z,73.78
2022-09-12T16:31:42.644Z,73.83
2022-09-12T16:33:15.873Z,73.76
2022-09-12T16:34:50.740Z,74.05
2022-09-12T16:36:24.403Z,74.27
2022-09-12T16:37:57.636Z,74.42
2022-09-12T16:39:31.318Z,74.37
2022-09-12T16:41:06.271Z,74.52
2022-09-12T16:42:43.153Z,74.27
2022-09-12T16:44:16.961Z,74.65
2022-09-12T16:45:50.560Z,74.88
2022-09-12T16:47:23.889Z,75.02
2022-09-12T16:48:58.397Z,74.74
2022-09-12T16:50:31.933Z,74.91
2022-09-12T16:52:05.680Z,74.66
2022-09-12T16:53:39.307Z,74.57
2022-09-12T16:55:12.762Z,74.41
2022-09-12T16:56:46.968Z,74.42
2022-09-12T16:58:20.462Z,74.48
2022-09-12T16:59:54.206Z,74.54
2022-09-12T17:01:27.542Z,75.06
2022-09-12T17:03:00.391Z,74.82
2022-09-12T17:04:33.577Z,74.88
2022-09-12T17:06:10.793Z,74.83
2022-09-12T17:07:44.184Z,75.64
2022-09-12T17:09:19.081Z,76.44
2022-09-12T17:10:52.160Z,76.87
2022-09-12T17:12:25.079Z,77.12
2022-09-12T17:14:07.000Z,77.56
2022-09-12T17:15:40.339Z,78.13
2022-09-12T17:17:13.420Z,78.39
2022-09-12T17:18:47.119Z,78.48
2022-09-12T17:20:20.256Z,78.82
2022-09-12T17:21:53.377Z,79.38
2022-09-12T17:23:27.188Z,79.45
2022-09-12T17:25:00.339Z,79.56
2022-09-12T17:26:33.625Z,79.73
2022-09-12T17:28:07.819Z,80.00
2022-09-12T17:29:41.939Z,80.12
2022-09-12T17:31:15.413Z,80.40
2022-09-12T17:32:48.356Z,80.77
2022-09-12T17:34:21.254Z,81.00
2022-09-12T17:35:54.460Z,80.94
2022-09-12T17:37:28.362Z,81.22
2022-09-12T17:39:02.871Z,80.98
2022-09-12T17:40:58.026Z,80.82
2022-09-12T17:42:29.249Z,80.24
2022-09-12T17:44:03.325Z,80.40
2022-09-12T17:45:36.691Z,80.30
2022-09-12T17:47:10.480Z,80.37
2022-09-12T17:48:44.120Z,80.26
2022-09-12T17:50:31.479Z,80.43
2022-09-12T17:52:05.405Z,80.74
2022-09-12T17:53:38.868Z,81.09
2022-09-12T17:55:12.919Z,81.02
2022-09-12T17:56:47.015Z,81.08
2022-09-12T17:58:19.960Z,81.18
2022-09-12T17:59:53.170Z,81.07
2022-09-12T18:04:12.660Z,82.29
2022-09-12T18:05:48.791Z,82.26
2022-09-12T18:07:22.474Z,82.10
2022-09-12T18:08:55.383Z,82.23
2022-09-12T18:10:28.423Z,82.75
2022-09-12T18:12:01.246Z,83.00
2022-09-12T18:13:34.207Z,82.94
2022-09-12T18:15:07.477Z,83.02
2022-09-12T18:16:40.435Z,83.27
2022-09-12T18:18:13.439Z,83.33
2022-09-12T18:19:52.855Z,83.81
2022-09-12T18:21:26.427Z,83.54
2022-09-12T18:22:59.452Z,83.80
2022-09-12T18:24:32.840Z,84.06
2022-09-12T18:26:06.971Z,84.05
2022-09-12T18:27:39.956Z,84.48
2022-09-12T18:29:13.479Z,84.48
2022-09-12T18:30:46.490Z,84.26
2022-09-12T18:32:19.555Z,84.57
2022-09-12T18:33:52.357Z,84.79
2022-09-12T18:35:25.309Z,84.54
2022-09-12T18:36:59.348Z,84.68
2022-09-12T18:38:32.651Z,85.04
2022-09-12T18:40:05.750Z,84.81
2022-09-12T18:41:39.405Z,85.41
2022-09-12T18:43:12.298Z,84.92
2022-09-12T18:44:45.331Z,84.83
2022-09-12T18:46:19.161Z,85.13
2022-09-12T18:47:52.353Z,85.35
2022-09-12T18:49:25.166Z,85.11
2022-09-12T18:51:05.976Z,85.19
2022-09-12T18:52:38.864Z,85.03
2022-09-12T18:54:13.394Z,85.40
2022-09-12T18:55:46.264Z,85.23
2022-09-12T18:57:19.546Z,85.43
2022-09-12T18:58:54.035Z,85.62
2022-09-12T19:00:27.440Z,85.24
2022-09-12T19:02:00.437Z,85.43
2022-09-12T19:03:33.623Z,85.21
2022-09-12T19:05:06.639Z,85.10
2022-09-12T19:06:40.839Z,85.56
2022-09-12T19:08:13.721Z,85.57
2022-09-12T19:09:46.751Z,85.33
2022-09-12T19:11:20.086Z,85.49
2022-09-12T19:12:53.353Z,85.44
2022-09-12T19:14:26.966Z,85.46
2022-09-12T19:16:00.711Z,85.55
2022-09-12T19:17:33.549Z,85.28
2022-09-12T19:19:06.766Z,85.44
2022-09-12T19:20:39.675Z,85.33
2022-09-12T19:22:12.799Z,85.58
2022-09-12T19:23:46.574Z,85.46
2022-09-12T19:25:19.516Z,85.55
2022-09-12T19:26:52.297Z,85.30
2022-09-12T19:28:25.227Z,85.02
2022-09-12T19:29:58.058Z,85.37
2022-09-12T19:31:31.340Z,85.60
2022-09-12T19:33:04.583Z,85.73
2022-09-12T19:34:37.539Z,85.73
2022-09-12T19:36:40.808Z,85.38
2022-09-12T19:38:05.798Z,85.28
2022-09-12T19:39:44.660Z,85.62
2022-09-12T19:41:19.255Z,85.30
2022-09-12T19:42:52.173Z,85.10
2022-09-12T19:44:27.563Z,85.13
2022-09-12T19:46:01.225Z,85.28
2022-09-12T19:47:34.271Z,84.91
2022-09-12T19:49:07.176Z,85.47
2022-09-12T19:50:40.206Z,85.37
2022-09-12T19:52:17.293Z,85.00
2022-09-12T19:53:53.460Z,85.49
2022-09-12T19:55:26.253Z,85.04
2022-09-12T19:56:59.295Z,85.38
2022-09-12T19:58:32.925Z,85.38
2022-09-12T20:00:07.195Z,85.66
2022-09-12T20:01:40.402Z,85.84
2022-09-12T20:03:13.596Z,85.61
2022-09-12T20:04:47.788Z,85.50
2022-09-12T20:06:20.650Z,85.80
2022-09-12T20:07:54.183Z,85.40
2022-09-12T20:09:27.140Z,85.51
2022-09-12T20:11:01.116Z,85.49
2022-09-12T20:12:34.015Z,85.61
2022-09-12T20:14:07.910Z,85.88
2022-09-12T20:15:40.890Z,85.66
2022-09-12T20:17:14.199Z,86.07
2022-09-12T20:18:47.478Z,86.06
2022-09-12T20:20:20.451Z,86.12
2022-09-12T20:21:54.677Z,85.77
2022-09-12T20:23:27.708Z,86.08
2022-09-12T20:25:01.019Z,86.06
2022-09-12T20:26:34.422Z,86.33
2022-09-12T20:28:07.630Z,86.30
2022-09-12T20:29:40.673Z,86.36
2022-09-12T20:31:14.922Z,86.35
2022-09-12T20:32:47.947Z,86.53
2022-09-12T20:34:23.215Z,86.78
2022-09-12T20:36:01.437Z,86.82
2022-09-12T20:37:36.266Z,86.45
2022-09-12T20:39:12.990Z,86.56
2022-09-12T20:40:49.488Z,86.87
2022-09-12T20:42:22.443Z,86.58
2022-09-12T20:43:56.367Z,87.09
2022-09-12T20:45:29.182Z,86.87
2022-09-12T20:47:02.368Z,87.01
2022-09-12T20:48:35.313Z,87.03
2022-09-12T20:50:08.484Z,86.90
2022-09-12T20:51:41.466Z,86.76
2022-09-12T20:53:15.551Z,86.66